sensor_id;sensor_type;location;lat;lon;timestamp;temperature;humidity
13992;DHT22;7070;53.586;9.692;2023-03-14T00:00:51;9.50;93.00
13992;DHT22;7070;53.586;9.692;2023-03-14T00:03:18;9.50;92.90
13992;DHT22;7070;53.586;9.692;2023-03-14T00:05:47;9.50;92.90
13992;DHT22;7070;53.586;9.692;2023-03-14T00:08:14;9.50;93.00
13992;DHT22;7070;53.586;9.692;2023-03-14T00:10:41;9.40;92.90
13992;DHT22;7070;53.586;9.692;2023-03-14T00:13:08;9.40;93.00
13992;DHT22;7070;53.586;9.692;2023-03-14T00:15:35;9.40;92.90
13992;DHT22;7070;53.586;9.692;2023-03-14T00:18:03;9.40;92.90
13992;DHT22;7070;53.586;9.692;2023-03-14T00:20:30;9.40;92.90
13992;DHT22;7070;53.586;9.692;2023-03-14T00:22:58;9.40;93.10
13992;DHT22;7070;53.586;9.692;2023-03-14T00:25:25;9.30;93.20
13992;DHT22;7070;53.586;9.692;2023-03-14T00:27:52;9.40;93.50
13992;DHT22;7070;53.586;9.692;2023-03-14T00:30:19;9.50;93.70
13992;DHT22;7070;53.586;9.692;2023-03-14T00:32:47;9.60;93.90
13992;DHT22;7070;53.586;9.692;2023-03-14T00:35:14;9.70;94.00
13992;DHT22;7070;53.586;9.692;2023-03-14T00:37:41;9.70;94.10
13992;DHT22;7070;53.586;9.692;2023-03-14T00:40:10;9.90;94.10
13992;DHT22;7070;53.586;9.692;2023-03-14T00:42:37;10.00;93.60
13992;DHT22;7070;53.586;9.692;2023-03-14T00:45:05;10.00;93.50
13992;DHT22;7070;53.586;9.692;2023-03-14T00:47:34;10.00;93.40
13992;DHT22;7070;53.586;9.692;2023-03-14T00:50:01;10.10;93.30
13992;DHT22;7070;53.586;9.692;2023-03-14T00:52:28;10.10;93.30
13992;DHT22;7070;53.586;9.692;2023-03-14T00:54:55;10.20;93.40
13992;DHT22;7070;53.586;9.692;2023-03-14T00:57:23;10.20;93.40
13992;DHT22;7070;53.586;9.692;2023-03-14T00:59:51;10.20;93.40
13992;DHT22;7070;53.586;9.692;2023-03-14T01:02:18;10.30;93.50
13992;DHT22;7070;53.586;9.692;2023-03-14T01:04:47;10.40;93.50
13992;DHT22;7070;53.586;9.692;2023-03-14T01:07:15;10.40;93.60
13992;DHT22;7070;53.586;9.692;2023-03-14T01:09:42;10.50;93.60
13992;DHT22;7070;53.586;9.692;2023-03-14T01:12:09;10.60;93.70
13992;DHT22;7070;53.586;9.692;2023-03-14T01:14:37;10.60;93.70
13992;DHT22;7070;53.586;9.692;2023-03-14T01:17:04;10.70;93.70
13992;DHT22;7070;53.586;9.692;2023-03-14T01:19:31;10.70;93.60
13992;DHT22;7070;53.586;9.692;2023-03-14T01:21:58;10.80;93.60
13992;DHT22;7070;53.586;9.692;2023-03-14T01:24:25;10.80;93.60
13992;DHT22;7070;53.586;9.692;2023-03-14T01:26:52;10.80;93.90
13992;DHT22;7070;53.586;9.692;2023-03-14T01:29:19;10.90;93.60
13992;DHT22;7070;53.586;9.692;2023-03-14T01:31:47;11.00;93.70
13992;DHT22;7070;53.586;9.692;2023-03-14T01:34:14;11.00;93.70
13992;DHT22;7070;53.586;9.692;2023-03-14T01:36:41;11.10;93.70
13992;DHT22;7070;53.586;9.692;2023-03-14T01:39:08;11.10;93.70
13992;DHT22;7070;53.586;9.692;2023-03-14T01:41:35;11.20;93.60
13992;DHT22;7070;53.586;9.692;2023-03-14T01:44:02;11.20;93.40
13992;DHT22;7070;53.586;9.692;2023-03-14T01:46:34;11.10;93.20
13992;DHT22;7070;53.586;9.692;2023-03-14T01:49:07;11.10;93.00
13992;DHT22;7070;53.586;9.692;2023-03-14T01:51:40;11.00;92.80
13992;DHT22;7070;53.586;9.692;2023-03-14T01:54:14;11.00;93.00
13992;DHT22;7070;53.586;9.692;2023-03-14T01:56:43;10.90;92.50
13992;DHT22;7070;53.586;9.692;2023-03-14T01:59:12;10.80;92.30
13992;DHT22;7070;53.586;9.692;2023-03-14T02:01:42;10.70;92.30
13992;DHT22;7070;53.586;9.692;2023-03-14T02:04:11;10.70;92.40
13992;DHT22;7070;53.586;9.692;2023-03-14T02:06:45;10.60;92.60
13992;DHT22;7070;53.586;9.692;2023-03-14T02:09:14;10.60;92.70
13992;DHT22;7070;53.586;9.692;2023-03-14T02:11:41;10.60;92.90
13992;DHT22;7070;53.586;9.692;2023-03-14T02:14:16;10.60;92.90
13992;DHT22;7070;53.586;9.692;2023-03-14T02:16:46;10.50;92.90
13992;DHT22;7070;53.586;9.692;2023-03-14T02:19:17;10.60;92.90
13992;DHT22;7070;53.586;9.692;2023-03-14T02:21:50;10.50;92.90
13992;DHT22;7070;53.586;9.692;2023-03-14T02:24:24;10.50;92.70
13992;DHT22;7070;53.586;9.692;2023-03-14T02:27:09;10.50;92.60
13992;DHT22;7070;53.586;9.692;2023-03-14T02:29:40;10.40;92.40
13992;DHT22;7070;53.586;9.692;2023-03-14T02:32:10;10.40;92.50
13992;DHT22;7070;53.586;9.692;2023-03-14T02:34:38;10.30;92.60
13992;DHT22;7070;53.586;9.692;2023-03-14T02:37:06;10.30;92.70
13992;DHT22;7070;53.586;9.692;2023-03-14T02:39:36;10.30;92.80
13992;DHT22;7070;53.586;9.692;2023-03-14T02:42:06;10.40;93.00
13992;DHT22;7070;53.586;9.692;2023-03-14T02:44:33;10.40;93.00
13992;DHT22;7070;53.586;9.692;2023-03-14T02:47:01;10.30;93.10
13992;DHT22;7070;53.586;9.692;2023-03-14T02:49:29;10.40;93.20
13992;DHT22;7070;53.586;9.692;2023-03-14T02:51:58;10.40;93.20
13992;DHT22;7070;53.586;9.692;2023-03-14T02:54:25;10.50;93.30
13992;DHT22;7070;53.586;9.692;2023-03-14T02:56:52;10.50;93.30
13992;DHT22;7070;53.586;9.692;2023-03-14T02:59:21;10.50;93.30
13992;DHT22;7070;53.586;9.692;2023-03-14T03:01:48;10.50;93.30
13992;DHT22;7070;53.586;9.692;2023-03-14T03:04:15;10.60;93.30
13992;DHT22;7070;53.586;9.692;2023-03-14T03:06:42;10.60;93.30
13992;DHT22;7070;53.586;9.692;2023-03-14T03:09:09;10.70;93.40
13992;DHT22;7070;53.586;9.692;2023-03-14T03:11:36;10.70;93.50
13992;DHT22;7070;53.586;9.692;2023-03-14T03:14:03;10.70;93.50
13992;DHT22;7070;53.586;9.692;2023-03-14T03:16:31;10.80;93.60
13992;DHT22;7070;53.586;9.692;2023-03-14T03:18:58;10.80;93.70
13992;DHT22;7070;53.586;9.692;2023-03-14T03:21:25;10.90;93.70
13992;DHT22;7070;53.586;9.692;2023-03-14T03:23:52;11.00;93.80
13992;DHT22;7070;53.586;9.692;2023-03-14T03:26:19;11.00;93.80
13992;DHT22;7070;53.586;9.692;2023-03-14T03:28:46;11.10;93.80
13992;DHT22;7070;53.586;9.692;2023-03-14T03:31:13;11.10;93.80
13992;DHT22;7070;53.586;9.692;2023-03-14T03:33:41;11.20;93.90
13992;DHT22;7070;53.586;9.692;2023-03-14T03:36:09;11.30;93.90
13992;DHT22;7070;53.586;9.692;2023-03-14T03:38:36;11.30;93.80
13992;DHT22;7070;53.586;9.692;2023-03-14T03:41:05;11.30;94.00
13992;DHT22;7070;53.586;9.692;2023-03-14T03:43:31;11.30;93.70
13992;DHT22;7070;53.586;9.692;2023-03-14T03:46:02;11.30;93.60
13992;DHT22;7070;53.586;9.692;2023-03-14T03:48:29;11.30;93.60
13992;DHT22;7070;53.586;9.692;2023-03-14T03:50:57;11.40;93.60
13992;DHT22;7070;53.586;9.692;2023-03-14T03:53:24;11.40;93.50
13992;DHT22;7070;53.586;9.692;2023-03-14T03:55:51;11.40;93.50
13992;DHT22;7070;53.586;9.692;2023-03-14T03:58:18;11.40;93.60
13992;DHT22;7070;53.586;9.692;2023-03-14T04:00:45;11.40;93.60
13992;DHT22;7070;53.586;9.692;2023-03-14T04:03:12;11.40;93.90
13992;DHT22;7070;53.586;9.692;2023-03-14T04:05:39;11.40;93.50
13992;DHT22;7070;53.586;9.692;2023-03-14T04:08:07;11.40;93.50
13992;DHT22;7070;53.586;9.692;2023-03-14T04:10:34;11.40;93.50
13992;DHT22;7070;53.586;9.692;2023-03-14T04:13:01;11.40;93.40
13992;DHT22;7070;53.586;9.692;2023-03-14T04:15:28;11.40;93.40
13992;DHT22;7070;53.586;9.692;2023-03-14T04:17:57;11.40;93.40
13992;DHT22;7070;53.586;9.692;2023-03-14T04:20:25;11.40;93.40
13992;DHT22;7070;53.586;9.692;2023-03-14T04:22:52;11.30;93.40
13992;DHT22;7070;53.586;9.692;2023-03-14T04:25:20;11.40;93.50
13992;DHT22;7070;53.586;9.692;2023-03-14T04:27:47;11.40;93.60
13992;DHT22;7070;53.586;9.692;2023-03-14T04:30:14;11.40;93.60
13992;DHT22;7070;53.586;9.692;2023-03-14T04:32:41;11.40;93.50
13992;DHT22;7070;53.586;9.692;2023-03-14T04:35:08;11.40;93.40
13992;DHT22;7070;53.586;9.692;2023-03-14T04:37:36;11.40;93.40
13992;DHT22;7070;53.586;9.692;2023-03-14T04:40:03;11.40;93.30
13992;DHT22;7070;53.586;9.692;2023-03-14T04:42:33;11.40;93.10
13992;DHT22;7070;53.586;9.692;2023-03-14T04:45:00;11.30;92.80
13992;DHT22;7070;53.586;9.692;2023-03-14T04:47:27;11.10;92.50
13992;DHT22;7070;53.586;9.692;2023-03-14T04:49:54;11.00;92.40
13992;DHT22;7070;53.586;9.692;2023-03-14T04:52:21;10.90;92.40
13992;DHT22;7070;53.586;9.692;2023-03-14T04:54:48;10.80;92.30
13992;DHT22;7070;53.586;9.692;2023-03-14T04:57:15;10.80;92.50
13992;DHT22;7070;53.586;9.692;2023-03-14T04:59:43;10.70;92.50
13992;DHT22;7070;53.586;9.692;2023-03-14T05:02:11;10.70;92.60
13992;DHT22;7070;53.586;9.692;2023-03-14T05:04:38;10.60;92.60
13992;DHT22;7070;53.586;9.692;2023-03-14T05:07:04;10.50;92.50
13992;DHT22;7070;53.586;9.692;2023-03-14T05:09:31;10.50;92.60
13992;DHT22;7070;53.586;9.692;2023-03-14T05:11:58;10.50;92.60
13992;DHT22;7070;53.586;9.692;2023-03-14T05:14:26;10.40;92.50
13992;DHT22;7070;53.586;9.692;2023-03-14T05:16:55;10.40;92.50
13992;DHT22;7070;53.586;9.692;2023-03-14T05:19:22;10.40;92.60
13992;DHT22;7070;53.586;9.692;2023-03-14T05:21:48;10.30;92.60
13992;DHT22;7070;53.586;9.692;2023-03-14T05:24:16;10.30;92.90
13992;DHT22;7070;53.586;9.692;2023-03-14T05:26:43;10.30;92.60
13992;DHT22;7070;53.586;9.692;2023-03-14T05:29:10;10.20;92.60
13992;DHT22;7070;53.586;9.692;2023-03-14T05:31:37;10.20;92.60
13992;DHT22;7070;53.586;9.692;2023-03-14T05:34:05;10.20;92.70
13992;DHT22;7070;53.586;9.692;2023-03-14T05:36:32;10.10;92.60
13992;DHT22;7070;53.586;9.692;2023-03-14T05:38:59;10.20;92.80
13992;DHT22;7070;53.586;9.692;2023-03-14T05:41:26;10.10;92.80
13992;DHT22;7070;53.586;9.692;2023-03-14T05:43:54;10.10;92.80
13992;DHT22;7070;53.586;9.692;2023-03-14T05:46:21;10.20;92.90
13992;DHT22;7070;53.586;9.692;2023-03-14T05:48:48;10.10;92.80
13992;DHT22;7070;53.586;9.692;2023-03-14T05:51:16;10.10;92.90
13992;DHT22;7070;53.586;9.692;2023-03-14T05:53:43;10.10;92.90
13992;DHT22;7070;53.586;9.692;2023-03-14T05:56:10;10.10;92.90
13992;DHT22;7070;53.586;9.692;2023-03-14T05:58:37;10.10;92.90
13992;DHT22;7070;53.586;9.692;2023-03-14T06:01:05;10.10;92.80
13992;DHT22;7070;53.586;9.692;2023-03-14T06:03:32;10.10;92.70
13992;DHT22;7070;53.586;9.692;2023-03-14T06:05:59;10.00;92.80
13992;DHT22;7070;53.586;9.692;2023-03-14T06:08:27;10.00;92.90
13992;DHT22;7070;53.586;9.692;2023-03-14T06:10:54;10.10;93.00
13992;DHT22;7070;53.586;9.692;2023-03-14T06:13:23;10.10;93.00
13992;DHT22;7070;53.586;9.692;2023-03-14T06:15:50;10.20;93.10
13992;DHT22;7070;53.586;9.692;2023-03-14T06:18:17;10.10;93.10
13992;DHT22;7070;53.586;9.692;2023-03-14T06:20:44;10.20;93.20
13992;DHT22;7070;53.586;9.692;2023-03-14T06:23:11;10.20;93.10
13992;DHT22;7070;53.586;9.692;2023-03-14T06:25:39;10.10;93.00
13992;DHT22;7070;53.586;9.692;2023-03-14T06:28:06;10.20;92.90
13992;DHT22;7070;53.586;9.692;2023-03-14T06:30:33;10.20;92.80
13992;DHT22;7070;53.586;9.692;2023-03-14T06:33:00;10.20;92.80
13992;DHT22;7070;53.586;9.692;2023-03-14T06:35:27;10.10;92.70
13992;DHT22;7070;53.586;9.692;2023-03-14T06:37:54;10.20;92.60
13992;DHT22;7070;53.586;9.692;2023-03-14T06:40:21;10.10;92.60
13992;DHT22;7070;53.586;9.692;2023-03-14T06:42:49;10.10;92.60
13992;DHT22;7070;53.586;9.692;2023-03-14T06:45:16;10.10;92.70
13992;DHT22;7070;53.586;9.692;2023-03-14T06:47:43;10.10;92.80
13992;DHT22;7070;53.586;9.692;2023-03-14T06:50:11;10.20;93.00
13992;DHT22;7070;53.586;9.692;2023-03-14T06:52:38;10.30;93.10
13992;DHT22;7070;53.586;9.692;2023-03-14T06:55:07;10.30;93.20
13992;DHT22;7070;53.586;9.692;2023-03-14T06:57:34;10.30;93.30
13992;DHT22;7070;53.586;9.692;2023-03-14T07:00:04;10.50;93.40
13992;DHT22;7070;53.586;9.692;2023-03-14T07:02:31;10.50;93.40
13992;DHT22;7070;53.586;9.692;2023-03-14T07:04:58;10.60;93.70
13992;DHT22;7070;53.586;9.692;2023-03-14T07:07:26;10.70;93.50
13992;DHT22;7070;53.586;9.692;2023-03-14T07:09:53;10.80;93.50
13992;DHT22;7070;53.586;9.692;2023-03-14T07:12:20;10.70;93.40
13992;DHT22;7070;53.586;9.692;2023-03-14T07:14:47;10.80;93.50
13992;DHT22;7070;53.586;9.692;2023-03-14T07:17:15;10.90;93.90
13992;DHT22;7070;53.586;9.692;2023-03-14T07:19:42;10.90;93.60
13992;DHT22;7070;53.586;9.692;2023-03-14T07:22:09;11.00;93.60
13992;DHT22;7070;53.586;9.692;2023-03-14T07:24:36;11.10;93.70
13992;DHT22;7070;53.586;9.692;2023-03-14T07:27:03;11.20;93.70
13992;DHT22;7070;53.586;9.692;2023-03-14T07:29:30;11.30;93.70
13992;DHT22;7070;53.586;9.692;2023-03-14T07:31:57;11.40;93.70
13992;DHT22;7070;53.586;9.692;2023-03-14T07:34:25;11.40;93.50
13992;DHT22;7070;53.586;9.692;2023-03-14T07:36:52;11.40;93.40
13992;DHT22;7070;53.586;9.692;2023-03-14T07:39:19;11.50;93.40
13992;DHT22;7070;53.586;9.692;2023-03-14T07:41:46;11.50;93.30
13992;DHT22;7070;53.586;9.692;2023-03-14T07:44:13;11.40;93.50
13992;DHT22;7070;53.586;9.692;2023-03-14T07:46:40;11.50;93.20
13992;DHT22;7070;53.586;9.692;2023-03-14T07:49:07;11.50;93.20
13992;DHT22;7070;53.586;9.692;2023-03-14T07:51:36;11.50;93.20
13992;DHT22;7070;53.586;9.692;2023-03-14T07:54:03;11.50;93.20
13992;DHT22;7070;53.586;9.692;2023-03-14T07:56:30;11.50;93.40
13992;DHT22;7070;53.586;9.692;2023-03-14T07:58:57;11.60;93.50
13992;DHT22;7070;53.586;9.692;2023-03-14T08:01:24;11.70;93.60
13992;DHT22;7070;53.586;9.692;2023-03-14T08:03:51;11.80;93.60
13992;DHT22;7070;53.586;9.692;2023-03-14T08:06:18;11.90;93.70
13992;DHT22;7070;53.586;9.692;2023-03-14T08:08:46;12.00;93.70
13992;DHT22;7070;53.586;9.692;2023-03-14T08:11:14;12.10;93.70
13992;DHT22;7070;53.586;9.692;2023-03-14T08:13:40;12.10;93.70
13992;DHT22;7070;53.586;9.692;2023-03-14T08:16:08;12.30;93.80
13992;DHT22;7070;53.586;9.692;2023-03-14T08:18:35;12.30;93.70
13992;DHT22;7070;53.586;9.692;2023-03-14T08:21:02;12.40;93.70
13992;DHT22;7070;53.586;9.692;2023-03-14T08:23:29;12.50;93.70
13992;DHT22;7070;53.586;9.692;2023-03-14T08:25:57;12.60;93.60
13992;DHT22;7070;53.586;9.692;2023-03-14T08:28:24;12.70;93.60
13992;DHT22;7070;53.586;9.692;2023-03-14T08:30:56;12.70;93.50
13992;DHT22;7070;53.586;9.692;2023-03-14T08:33:23;12.70;93.40
13992;DHT22;7070;53.586;9.692;2023-03-14T08:35:51;12.80;93.40
13992;DHT22;7070;53.586;9.692;2023-03-14T08:38:18;12.80;93.30
13992;DHT22;7070;53.586;9.692;2023-03-14T08:40:45;12.80;93.20
13992;DHT22;7070;53.586;9.692;2023-03-14T08:43:13;12.80;93.20
13992;DHT22;7070;53.586;9.692;2023-03-14T08:45:40;12.90;93.10
13992;DHT22;7070;53.586;9.692;2023-03-14T08:48:07;12.90;93.10
13992;DHT22;7070;53.586;9.692;2023-03-14T08:50:34;12.80;92.90
13992;DHT22;7070;53.586;9.692;2023-03-14T08:53:01;12.80;92.90
13992;DHT22;7070;53.586;9.692;2023-03-14T08:55:28;12.80;92.90
13992;DHT22;7070;53.586;9.692;2023-03-14T08:57:56;12.80;92.80
13992;DHT22;7070;53.586;9.692;2023-03-14T09:00:24;12.80;92.90
13992;DHT22;7070;53.586;9.692;2023-03-14T09:02:51;12.80;92.90
13992;DHT22;7070;53.586;9.692;2023-03-14T09:05:18;12.80;93.00
13992;DHT22;7070;53.586;9.692;2023-03-14T09:07:45;12.80;92.90
13992;DHT22;7070;53.586;9.692;2023-03-14T09:10:12;12.80;92.90
13992;DHT22;7070;53.586;9.692;2023-03-14T09:12:39;12.70;92.80
13992;DHT22;7070;53.586;9.692;2023-03-14T09:15:07;12.70;92.70
13992;DHT22;7070;53.586;9.692;2023-03-14T09:17:35;12.60;92.70
13992;DHT22;7070;53.586;9.692;2023-03-14T09:20:03;12.60;92.70
13992;DHT22;7070;53.586;9.692;2023-03-14T09:22:32;12.60;92.70
13992;DHT22;7070;53.586;9.692;2023-03-14T09:25:01;12.50;92.70
13992;DHT22;7070;53.586;9.692;2023-03-14T09:27:28;12.50;92.70
13992;DHT22;7070;53.586;9.692;2023-03-14T09:29:55;12.50;92.70
13992;DHT22;7070;53.586;9.692;2023-03-14T09:32:22;12.40;92.60
13992;DHT22;7070;53.586;9.692;2023-03-14T09:34:50;12.30;91.90
13992;DHT22;7070;53.586;9.692;2023-03-14T09:37:17;12.10;90.80
13992;DHT22;7070;53.586;9.692;2023-03-14T09:39:45;11.80;90.30
13992;DHT22;7070;53.586;9.692;2023-03-14T09:42:16;11.40;89.60
13992;DHT22;7070;53.586;9.692;2023-03-14T09:44:53;11.00;89.30
13992;DHT22;7070;53.586;9.692;2023-03-14T09:47:20;10.50;89.30
13992;DHT22;7070;53.586;9.692;2023-03-14T09:49:50;10.20;89.20
13992;DHT22;7070;53.586;9.692;2023-03-14T09:52:21;9.70;90.10
13992;DHT22;7070;53.586;9.692;2023-03-14T09:54:51;9.40;90.30
13992;DHT22;7070;53.586;9.692;2023-03-14T09:57:21;9.00;90.30
13992;DHT22;7070;53.586;9.692;2023-03-14T09:59:50;8.70;90.40
13992;DHT22;7070;53.586;9.692;2023-03-14T10:02:19;8.50;90.70
13992;DHT22;7070;53.586;9.692;2023-03-14T10:04:48;8.20;90.80
13992;DHT22;7070;53.586;9.692;2023-03-14T10:07:19;7.90;90.90
13992;DHT22;7070;53.586;9.692;2023-03-14T10:09:50;7.70;91.00
13992;DHT22;7070;53.586;9.692;2023-03-14T10:12:17;7.60;91.20
13992;DHT22;7070;53.586;9.692;2023-03-14T10:14:47;7.40;91.30
13992;DHT22;7070;53.586;9.692;2023-03-14T10:17:15;7.20;91.40
13992;DHT22;7070;53.586;9.692;2023-03-14T10:19:54;7.10;91.50
13992;DHT22;7070;53.586;9.692;2023-03-14T10:22:24;6.90;91.60
13992;DHT22;7070;53.586;9.692;2023-03-14T10:24:53;6.80;91.70
13992;DHT22;7070;53.586;9.692;2023-03-14T10:27:27;6.70;91.70
13992;DHT22;7070;53.586;9.692;2023-03-14T10:29:56;6.60;91.70
13992;DHT22;7070;53.586;9.692;2023-03-14T10:32:29;6.50;91.80
13992;DHT22;7070;53.586;9.692;2023-03-14T10:35:08;6.40;91.90
13992;DHT22;7070;53.586;9.692;2023-03-14T10:37:50;6.40;92.00
13992;DHT22;7070;53.586;9.692;2023-03-14T10:40:18;6.30;92.10
13992;DHT22;7070;53.586;9.692;2023-03-14T10:42:45;6.30;92.20
13992;DHT22;7070;53.586;9.692;2023-03-14T10:45:27;6.30;92.20
13992;DHT22;7070;53.586;9.692;2023-03-14T10:47:59;6.30;92.20
13992;DHT22;7070;53.586;9.692;2023-03-14T10:50:27;6.20;92.10
13992;DHT22;7070;53.586;9.692;2023-03-14T10:52:57;6.20;92.10
13992;DHT22;7070;53.586;9.692;2023-03-14T10:55:24;6.20;92.10
13992;DHT22;7070;53.586;9.692;2023-03-14T10:57:52;6.10;92.10
13992;DHT22;7070;53.586;9.692;2023-03-14T11:00:21;6.10;92.20
13992;DHT22;7070;53.586;9.692;2023-03-14T11:03:06;6.10;92.30
13992;DHT22;7070;53.586;9.692;2023-03-14T11:05:39;6.20;92.40
13992;DHT22;7070;53.586;9.692;2023-03-14T11:08:15;6.10;92.20
13992;DHT22;7070;53.586;9.692;2023-03-14T11:10:45;6.00;92.00
13992;DHT22;7070;53.586;9.692;2023-03-14T11:13:18;6.00;91.90
13992;DHT22;7070;53.586;9.692;2023-03-14T11:15:58;5.90;91.90
13992;DHT22;7070;53.586;9.692;2023-03-14T11:21:33;5.90;92.30
13992;DHT22;7070;53.586;9.692;2023-03-14T11:27:08;5.90;92.40
13992;DHT22;7070;53.586;9.692;2023-03-14T11:29:40;5.90;92.20
13992;DHT22;7070;53.586;9.692;2023-03-14T11:32:13;6.00;92.20
13992;DHT22;7070;53.586;9.692;2023-03-14T11:34:48;6.00;92.30
13992;DHT22;7070;53.586;9.692;2023-03-14T11:37:22;6.00;92.30
13992;DHT22;7070;53.586;9.692;2023-03-14T11:39:56;6.00;92.10
13992;DHT22;7070;53.586;9.692;2023-03-14T11:42:26;6.10;92.10
13992;DHT22;7070;53.586;9.692;2023-03-14T11:44:54;6.00;92.10
13992;DHT22;7070;53.586;9.692;2023-03-14T11:47:25;6.00;92.10
13992;DHT22;7070;53.586;9.692;2023-03-14T11:50:00;6.10;92.10
13992;DHT22;7070;53.586;9.692;2023-03-14T11:52:32;6.10;92.20
13992;DHT22;7070;53.586;9.692;2023-03-14T11:55:07;6.10;92.30
13992;DHT22;7070;53.586;9.692;2023-03-14T11:57:36;6.20;92.40
13992;DHT22;7070;53.586;9.692;2023-03-14T12:00:13;6.20;92.40
13992;DHT22;7070;53.586;9.692;2023-03-14T12:02:47;6.40;92.40
13992;DHT22;7070;53.586;9.692;2023-03-14T12:05:33;6.40;92.30
13992;DHT22;7070;53.586;9.692;2023-03-14T12:11:14;6.50;92.40
13992;DHT22;7070;53.586;9.692;2023-03-14T12:13:46;6.60;92.40
13992;DHT22;7070;53.586;9.692;2023-03-14T12:16:26;6.60;92.40
13992;DHT22;7070;53.586;9.692;2023-03-14T12:18:54;6.60;92.40
13992;DHT22;7070;53.586;9.692;2023-03-14T12:21:47;6.70;92.30
13992;DHT22;7070;53.586;9.692;2023-03-14T12:24:19;6.70;92.30
13992;DHT22;7070;53.586;9.692;2023-03-14T12:26:53;6.70;92.30
13992;DHT22;7070;53.586;9.692;2023-03-14T12:29:20;6.70;92.30
13992;DHT22;7070;53.586;9.692;2023-03-14T12:31:47;6.80;92.60
13992;DHT22;7070;53.586;9.692;2023-03-14T12:34:39;6.70;91.90
13992;DHT22;7070;53.586;9.692;2023-03-14T12:37:28;6.70;91.70
13992;DHT22;7070;53.586;9.692;2023-03-14T12:40:12;6.50;91.60
13992;DHT22;7070;53.586;9.692;2023-03-14T12:42:54;6.40;91.70
13992;DHT22;7070;53.586;9.692;2023-03-14T12:45:29;6.30;91.70
13992;DHT22;7070;53.586;9.692;2023-03-14T12:48:09;6.20;91.70
13992;DHT22;7070;53.586;9.692;2023-03-14T12:50:42;6.10;91.90
13992;DHT22;7070;53.586;9.692;2023-03-14T12:56:22;6.00;91.90
13992;DHT22;7070;53.586;9.692;2023-03-14T13:01:47;6.00;91.80
13992;DHT22;7070;53.586;9.692;2023-03-14T13:04:26;7.00;92.20
13992;DHT22;7070;53.586;9.692;2023-03-14T13:06:55;6.00;91.70
13992;DHT22;7070;53.586;9.692;2023-03-14T13:09:52;6.00;91.70
13992;DHT22;7070;53.586;9.692;2023-03-14T13:12:25;6.10;91.90
13992;DHT22;7070;53.586;9.692;2023-03-14T13:14:58;6.10;91.90
13992;DHT22;7070;53.586;9.692;2023-03-14T13:17:27;6.20;92.00
13992;DHT22;7070;53.586;9.692;2023-03-14T13:20:01;6.30;92.00
13992;DHT22;7070;53.586;9.692;2023-03-14T13:22:33;6.50;92.00
13992;DHT22;7070;53.586;9.692;2023-03-14T13:25:03;6.40;92.00
13992;DHT22;7070;53.586;9.692;2023-03-14T13:27:33;6.40;91.90
13992;DHT22;7070;53.586;9.692;2023-03-14T13:30:15;6.50;92.00
13992;DHT22;7070;53.586;9.692;2023-03-14T13:32:43;6.60;92.10
13992;DHT22;7070;53.586;9.692;2023-03-14T13:35:16;6.70;92.20
13992;DHT22;7070;53.586;9.692;2023-03-14T13:37:44;6.70;92.10
13992;DHT22;7070;53.586;9.692;2023-03-14T13:40:23;6.70;92.00
13992;DHT22;7070;53.586;9.692;2023-03-14T13:43:01;6.70;91.90
13992;DHT22;7070;53.586;9.692;2023-03-14T13:45:28;6.80;92.00
13992;DHT22;7070;53.586;9.692;2023-03-14T13:47:55;6.80;92.30
13992;DHT22;7070;53.586;9.692;2023-03-14T13:50:22;6.80;92.00
13992;DHT22;7070;53.586;9.692;2023-03-14T13:52:55;6.80;92.00
13992;DHT22;7070;53.586;9.692;2023-03-14T13:55:24;6.80;92.00
13992;DHT22;7070;53.586;9.692;2023-03-14T13:57:52;7.00;92.20
13992;DHT22;7070;53.586;9.692;2023-03-14T14:00:21;6.90;92.20
13992;DHT22;7070;53.586;9.692;2023-03-14T14:02:53;7.00;92.20
13992;DHT22;7070;53.586;9.692;2023-03-14T14:05:20;7.00;92.10
13992;DHT22;7070;53.586;9.692;2023-03-14T14:07:49;6.90;92.10
13992;DHT22;7070;53.586;9.692;2023-03-14T14:10:16;7.10;92.20
13992;DHT22;7070;53.586;9.692;2023-03-14T14:12:48;7.10;92.30
13992;DHT22;7070;53.586;9.692;2023-03-14T14:15:19;7.10;92.20
13992;DHT22;7070;53.586;9.692;2023-03-14T14:17:51;7.20;92.20
13992;DHT22;7070;53.586;9.692;2023-03-14T14:20:22;7.20;92.10
13992;DHT22;7070;53.586;9.692;2023-03-14T14:22:50;7.20;92.00
13992;DHT22;7070;53.586;9.692;2023-03-14T14:25:18;7.20;91.90
13992;DHT22;7070;53.586;9.692;2023-03-14T14:27:49;7.20;91.90
13992;DHT22;7070;53.586;9.692;2023-03-14T14:30:28;7.20;91.90
13992;DHT22;7070;53.586;9.692;2023-03-14T14:33:17;7.20;91.90
13992;DHT22;7070;53.586;9.692;2023-03-14T14:35:52;7.20;91.90
13992;DHT22;7070;53.586;9.692;2023-03-14T14:38:20;7.10;91.90
13992;DHT22;7070;53.586;9.692;2023-03-14T14:40:49;7.10;92.00
13992;DHT22;7070;53.586;9.692;2023-03-14T14:43:22;7.10;92.00
13992;DHT22;7070;53.586;9.692;2023-03-14T14:45:50;7.10;92.00
13992;DHT22;7070;53.586;9.692;2023-03-14T14:48:22;7.10;92.10
13992;DHT22;7070;53.586;9.692;2023-03-14T14:50:54;7.10;92.10
13992;DHT22;7070;53.586;9.692;2023-03-14T14:53:25;7.10;92.00
13992;DHT22;7070;53.586;9.692;2023-03-14T14:55:55;7.10;92.00
13992;DHT22;7070;53.586;9.692;2023-03-14T14:58:26;7.10;92.10
13992;DHT22;7070;53.586;9.692;2023-03-14T15:00:57;7.10;92.40
13992;DHT22;7070;53.586;9.692;2023-03-14T15:03:30;7.20;92.60
13992;DHT22;7070;53.586;9.692;2023-03-14T15:06:01;7.30;93.10
13992;DHT22;7070;53.586;9.692;2023-03-14T15:08:28;7.40;93.00
13992;DHT22;7070;53.586;9.692;2023-03-14T15:10:55;7.60;92.90
13992;DHT22;7070;53.586;9.692;2023-03-14T15:13:24;7.60;92.60
13992;DHT22;7070;53.586;9.692;2023-03-14T15:15:51;7.60;92.40
13992;DHT22;7070;53.586;9.692;2023-03-14T15:18:21;7.60;92.10
13992;DHT22;7070;53.586;9.692;2023-03-14T15:20:48;7.50;91.90
13992;DHT22;7070;53.586;9.692;2023-03-14T15:23:16;7.40;92.00
13992;DHT22;7070;53.586;9.692;2023-03-14T15:25:44;7.30;91.70
13992;DHT22;7070;53.586;9.692;2023-03-14T15:28:21;7.30;91.60
13992;DHT22;7070;53.586;9.692;2023-03-14T15:30:51;7.10;91.50
13992;DHT22;7070;53.586;9.692;2023-03-14T15:33:18;7.00;91.50
13992;DHT22;7070;53.586;9.692;2023-03-14T15:35:47;6.90;91.60
13992;DHT22;7070;53.586;9.692;2023-03-14T15:38:16;6.90;91.60
13992;DHT22;7070;53.586;9.692;2023-03-14T15:40:45;6.80;91.70
13992;DHT22;7070;53.586;9.692;2023-03-14T15:43:12;6.80;91.80
13992;DHT22;7070;53.586;9.692;2023-03-14T15:45:40;6.70;91.90
13992;DHT22;7070;53.586;9.692;2023-03-14T15:48:12;6.70;92.00
13992;DHT22;7070;53.586;9.692;2023-03-14T15:50:40;6.60;92.00
13992;DHT22;7070;53.586;9.692;2023-03-14T15:53:07;6.60;92.00
13992;DHT22;7070;53.586;9.692;2023-03-14T15:55:34;6.60;92.00
13992;DHT22;7070;53.586;9.692;2023-03-14T15:58:01;6.50;92.20
13992;DHT22;7070;53.586;9.692;2023-03-14T16:00:29;6.50;92.00
13992;DHT22;7070;53.586;9.692;2023-03-14T16:02:56;6.50;92.00
13992;DHT22;7070;53.586;9.692;2023-03-14T16:05:24;6.60;92.10
13992;DHT22;7070;53.586;9.692;2023-03-14T16:07:51;6.50;92.10
13992;DHT22;7070;53.586;9.692;2023-03-14T16:10:18;6.40;92.00
13992;DHT22;7070;53.586;9.692;2023-03-14T16:12:45;6.40;92.00
13992;DHT22;7070;53.586;9.692;2023-03-14T16:15:12;6.40;92.00
13992;DHT22;7070;53.586;9.692;2023-03-14T16:17:38;6.30;92.00
13992;DHT22;7070;53.586;9.692;2023-03-14T16:20:09;6.40;92.00